Austin, Missouri
Current Conditions -  °F | °C
As of 11:53 PM on Wednesday 22 Oct 2014 (Local Time) from KOJC Reporting Station
Few Clouds Few Clouds  
Wind Chill: 16°   Ceiling: Unl
Heat Index: 16°   Visibility: 10mi
Dew Point: 11°   Wind: 10mph
Humidity: 75%   Direction: 160°SSE
Pressure: 30.11"   Gusts: NA
Location:  38.5148°N, 94.3768°W
Report Text: KOJC 230453Z AUTO 16009KT 10SM FEW055 16/11 A3011 RMK AO2 SLP190 T01560111
Loading
Personal Weather Stations






























Interactive Weather Map
Tropical Storm Tracking
New forecast layout! Learn more

10-Day Weather Forecast

Advertisements
Track Severe Weather on mobile